Time,TemperatureF,DewpointF,PressureIn,WindDirection,WindDirectionDegrees,WindSpeedMPH,WindSpeedGustMPH,Humidity,HourlyPrecipIn,Conditions,Clouds,dailyrainin,SoftwareType,DateUTC
2013-02-04 00:01:00,47.0,-99.9,-100.00,NNE,18,3.0,3.0,-999,-99.99,,,-99.99,,2013-02-04 08:01:00,
2013-02-04 00:11:00,47.0,-99.9,-100.00,NNE,18,3.0,3.0,-999,-99.99,,,-99.99,,2013-02-04 08:11:00,
2013-02-04 00:21:00,46.0,-99.9,-100.00,NNE,15,2.0,3.0,-999,-99.99,,,-99.99,,2013-02-04 08:21:00,
2013-02-04 01:02:00,45.0,-99.9,-100.00,North,3,0.0,1.0,-999,-99.99,,,-99.99,,2013-02-04 09:02:00,
2013-02-04 01:11:00,45.0,-99.9,-100.00,North,3,0.0,1.0,-999,-99.99,,,-99.99,,2013-02-04 09:11:00,
2013-02-04 01:22:00,45.0,-99.9,-100.00,North,3,0.0,1.0,-999,-99.99,,,-99.99,,2013-02-04 09:22:00,
2013-02-04 02:52:00,43.0,-99.9,-100.00,NE,37,3.0,4.0,-999,-99.99,,,-99.99,,2013-02-04 10:52:00,
2013-02-04 03:02:00,43.0,-99.9,-100.00,NE,37,3.0,4.0,-999,-99.99,,,-99.99,,2013-02-04 11:02:00,
2013-02-04 05:52:00,41.0,-99.9,-100.00,NE,38,2.0,3.0,-999,-99.99,,,-99.99,,2013-02-04 13:52:00,
2013-02-04 06:03:00,41.0,-99.9,-100.00,NNE,28,3.0,4.0,-999,-99.99,,,-99.99,,2013-02-04 14:03:00,
2013-02-04 06:23:00,40.0,-99.9,-100.00,North,11,1.0,2.0,-999,-99.99,,,-99.99,,2013-02-04 14:23:00,
2013-02-04 06:53:00,40.0,-99.9,-100.00,NE,48,3.0,3.0,-999,-99.99,,,-99.99,,2013-02-04 14:53:00,
2013-02-04 07:04:00,40.0,-99.9,-100.00,NE,48,3.0,3.0,-999,-99.99,,,-99.99,,2013-02-04 15:04:00,
2013-02-04 10:50:00,73.0,-99.9,-100.00,SE,130,0.0,3.0,-999,-99.99,,,-99.99,,2013-02-04 18:50:00,
2013-02-04 11:32:00,73.0,-99.9,-100.00,SE,130,0.0,3.0,-999,-99.99,,,-99.99,,2013-02-04 19:32:00,
2013-02-04 11:42:00,73.0,-99.9,-100.00,SE,130,0.0,3.0,-999,-99.99,,,-99.99,,2013-02-04 19:42:00,
2013-02-04 13:50:00,71.0,-99.9,-100.00,WSW,247,3.0,5.0,-999,-99.99,,,-99.99,,2013-02-04 21:50:00,
2013-02-04 14:33:00,71.0,-99.9,-100.00,WSW,247,3.0,5.0,-999,-99.99,,,-99.99,,2013-02-04 22:33:00,
2013-02-04 14:42:00,71.0,-99.9,-100.00,WSW,247,3.0,5.0,-999,-99.99,,,-99.99,,2013-02-04 22:42:00,
2013-02-04 16:50:00,66.0,-99.9,-100.00,WSW,238,2.0,3.0,-999,-99.99,,,-99.99,,2013-02-05 00:50:00,
2013-02-04 17:02:00,68.0,-99.9,-100.00,West,266,2.0,3.0,-999,-99.99,,,-99.99,,2013-02-05 01:02:00,
2013-02-04 17:12:00,68.0,-99.9,-100.00,West,266,2.0,3.0,-999,-99.99,,,-99.99,,2013-02-05 01:12:00,
2013-02-04 17:22:00,67.0,-99.9,-100.00,SW,228,1.0,3.0,-999,-99.99,,,-99.99,,2013-02-05 01:22:00,
2013-02-04 17:33:00,66.0,-99.9,-100.00,WSW,238,2.0,3.0,-999,-99.99,,,-99.99,,2013-02-05 01:33:00,
2013-02-04 17:42:00,66.0,-99.9,-100.00,WSW,238,2.0,3.0,-999,-99.99,,,-99.99,,2013-02-05 01:42:00,
2013-02-04 18:02:00,65.0,-99.9,-100.00,WSW,258,1.0,1.0,-999,-99.99,,,-99.99,,2013-02-05 02:02:00,
2013-02-04 18:12:00,65.0,-99.9,-100.00,WSW,258,1.0,1.0,-999,-99.99,,,-99.99,,2013-02-05 02:12:00,
2013-02-04 18:32:00,62.0,-99.9,-100.00,NE,43,0.0,1.0,-999,-99.99,,,-99.99,,2013-02-05 02:32:00,
2013-02-04 18:42:00,62.0,-99.9,-100.00,NE,43,0.0,1.0,-999,-99.99,,,-99.99,,2013-02-05 02:42:00,
2013-02-04 19:02:00,56.0,-99.9,-100.00,NNW,333,1.0,1.0,-999,-99.99,,,-99.99,,2013-02-05 03:02:00,
2013-02-04 19:12:00,56.0,-99.9,-100.00,NNW,333,1.0,1.0,-999,-99.99,,,-99.99,,2013-02-05 03:12:00,
2013-02-04 19:22:00,56.0,-99.9,-100.00,NNW,333,1.0,1.0,-999,-99.99,,,-99.99,,2013-02-05 03:22:00,
2013-02-04 19:32:00,56.0,-99.9,-100.00,NE,46,1.0,2.0,-999,-99.99,,,-99.99,,2013-02-05 03:32:00,
2013-02-04 19:42:00,56.0,-99.9,-100.00,NE,46,1.0,2.0,-999,-99.99,,,-99.99,,2013-02-05 03:42:00,
2013-02-04 20:52:00,50.0,-99.9,-100.00,NNE,18,1.0,2.0,-999,-99.99,,,-99.99,,2013-02-05 04:52:00,
2013-02-04 21:03:00,50.0,-99.9,-100.00,NNE,18,1.0,2.0,-999,-99.99,,,-99.99,,2013-02-05 05:03:00,
2013-02-04 22:32:00,45.0,-99.9,-100.00,NNE,22,1.0,1.0,-999,-99.99,,,-99.99,,2013-02-05 06:32:00,
2013-02-04 22:52:00,45.0,-99.9,-100.00,NNE,22,1.0,1.0,-999,-99.99,,,-99.99,,2013-02-05 06:52:00,
2013-02-04 23:00:00,44.0,-99.9,-100.00,NNE,29,4.0,4.0,-999,-99.99,,,-99.99,,2013-02-05 07:00:00,
2013-02-04 23:01:00,45.0,-99.9,-100.00,NE,36,5.0,5.0,-999,-99.99,,,-99.99,,2013-02-05 07:01:00,
2013-02-04 23:12:00,45.0,-99.9,-100.00,NE,36,5.0,5.0,-999,-99.99,,,-99.99,,2013-02-05 07:12:00,
2013-02-04 23:22:00,45.0,-99.9,-100.00,NE,36,5.0,5.0,-999,-99.99,,,-99.99,,2013-02-05 07:22:00,
2013-02-04 23:52:00,44.0,-99.9,-100.00,NNE,29,4.0,4.0,-999,-99.99,,,-99.99,,2013-02-05 07:52:00,